createdAt,value
2019-06-07T00:00:45.777Z,4.25
2019-06-07T00:01:50.967Z,5.05
2019-06-07T00:02:55.609Z,4.40
2019-06-07T00:04:00.794Z,4.80
2019-06-07T00:05:07.381Z,5.17
2019-06-07T00:06:19.684Z,4.78
2019-06-07T00:07:21.828Z,4.75
2019-06-07T00:08:28.842Z,3.90
2019-06-07T00:09:32.682Z,4.10
2019-06-07T00:10:38.153Z,4.37
2019-06-07T00:11:43.173Z,4.25
2019-06-07T00:12:48.816Z,4.55
2019-06-07T00:13:53.430Z,4.42
2019-06-07T00:14:58.930Z,4.60
2019-06-07T00:16:03.861Z,4.12
2019-06-07T00:17:12.504Z,5.10
2019-06-07T00:18:23.580Z,4.58
2019-06-07T00:19:22.743Z,4.95
2019-06-07T00:20:27.447Z,4.05
2019-06-07T00:22:12.973Z,3.83
2019-06-07T00:22:38.975Z,4.25
2019-06-07T00:23:44.232Z,4.22
2019-06-07T00:24:49.302Z,5.00
2019-06-07T00:25:54.483Z,4.25
2019-06-07T00:26:59.343Z,4.28
2019-06-07T00:28:04.802Z,4.28
2019-06-07T00:29:11.754Z,4.80
2019-06-07T00:30:39.587Z,4.55
2019-06-07T00:31:25.939Z,5.10
2019-06-07T00:32:31.131Z,4.08
2019-06-07T00:33:35.751Z,4.70
2019-06-07T00:34:41.079Z,3.80
2019-06-07T00:35:50.313Z,5.05
2019-06-07T00:36:55.882Z,3.47
2019-06-07T00:38:00.957Z,4.40
2019-06-07T00:39:10.581Z,3.70
2019-06-07T00:40:24.075Z,4.22
2019-06-07T00:41:22.470Z,3.98
2019-06-07T00:42:27.131Z,4.20
2019-06-07T00:43:32.279Z,3.60
2019-06-07T00:44:36.903Z,4.05
2019-06-07T00:45:42.541Z,4.33
2019-06-07T00:46:47.177Z,3.30
2019-06-07T00:47:53.147Z,4.10
2019-06-07T00:48:58.324Z,3.80
2019-06-07T00:50:03.531Z,3.75
2019-06-07T00:51:08.173Z,3.95
2019-06-07T00:52:58.576Z,4.22
2019-06-07T00:53:28.779Z,4.17
2019-06-07T00:54:26.463Z,4.17
2019-06-07T00:55:31.482Z,3.98
2019-06-07T00:56:36.644Z,4.53
2019-06-07T00:57:41.292Z,5.12
2019-06-07T00:58:46.627Z,3.50
2019-06-07T00:59:51.227Z,4.85
2019-06-07T01:00:56.431Z,5.05
2019-06-07T01:02:01.573Z,4.22
2019-06-07T01:03:06.881Z,4.92
2019-06-07T01:04:13.160Z,4.35
2019-06-07T01:05:22.518Z,4.53
2019-06-07T01:06:25.087Z,4.70
2019-06-07T01:07:30.496Z,4.15
2019-06-07T01:08:35.667Z,4.53
2019-06-07T01:09:40.962Z,4.37
2019-06-07T01:10:53.618Z,4.70
2019-06-07T01:11:52.402Z,3.90
2019-06-07T01:12:57.043Z,4.05
2019-06-07T01:14:02.188Z,4.30
2019-06-07T01:15:08.224Z,4.40
2019-06-07T01:16:13.780Z,4.05
2019-06-07T01:17:41.025Z,4.42
2019-06-07T01:18:41.019Z,4.55
2019-06-07T01:19:42.917Z,4.50
2019-06-07T01:20:49.807Z,4.87
2019-06-07T01:21:56.593Z,4.92
2019-06-07T01:23:01.816Z,6.10
2019-06-07T01:24:12.564Z,4.80
2019-06-07T01:25:13.634Z,4.80
2019-06-07T01:26:21.635Z,4.22
2019-06-07T01:27:25.600Z,3.98
2019-06-07T01:28:30.406Z,4.37
2019-06-07T01:29:35.590Z,4.78
2019-06-07T01:30:40.245Z,4.67
2019-06-07T01:31:45.446Z,4.35
2019-06-07T01:32:52.875Z,4.33
2019-06-07T01:33:59.511Z,3.30
2019-06-07T01:35:05.997Z,4.45
2019-06-07T01:36:11.578Z,4.15
2019-06-07T01:37:16.849Z,4.78
2019-06-07T01:38:24.970Z,4.28
2019-06-07T01:39:31.500Z,4.10
2019-06-07T01:40:37.182Z,4.03
2019-06-07T01:41:41.812Z,3.85
2019-06-07T01:42:48.930Z,3.85
2019-06-07T01:43:53.275Z,4.50
2019-06-07T01:44:58.805Z,3.90
2019-06-07T01:46:03.569Z,3.77
2019-06-07T01:47:08.914Z,5.00
2019-06-07T01:48:13.867Z,4.05
2019-06-07T01:49:19.689Z,4.65
2019-06-07T01:50:26.881Z,4.25
2019-06-07T01:51:31.204Z,4.75
2019-06-07T01:52:35.823Z,5.30
2019-06-07T01:53:40.975Z,4.95
2019-06-07T01:54:57.495Z,5.65
2019-06-07T01:55:52.365Z,5.25
2019-06-07T01:56:56.949Z,4.30
2019-06-07T01:58:02.230Z,4.50
2019-06-07T01:59:07.025Z,4.75
2019-06-07T02:00:14.554Z,6.53
2019-06-07T02:01:20.914Z,5.08
2019-06-07T02:02:29.914Z,4.83
2019-06-07T02:03:33.375Z,4.33
2019-06-07T02:04:39.364Z,4.37
2019-06-07T02:05:44.009Z,4.42
2019-06-07T02:06:49.246Z,4.80
2019-06-07T02:07:54.030Z,4.75
2019-06-07T02:08:59.634Z,4.75
2019-06-07T02:10:04.600Z,5.28
2019-06-07T02:11:10.276Z,5.05
2019-06-07T02:12:25.622Z,4.62
2019-06-07T02:13:23.593Z,5.17
2019-06-07T02:14:33.559Z,4.53
2019-06-07T02:15:37.988Z,4.55
2019-06-07T02:16:42.591Z,4.55
2019-06-07T02:17:48.153Z,4.08
2019-06-07T02:19:01.789Z,4.60
2019-06-07T02:19:59.632Z,4.20
2019-06-07T02:21:04.246Z,4.65
2019-06-07T02:22:09.413Z,5.50
2019-06-07T02:23:14.387Z,5.35
2019-06-07T02:24:24.468Z,5.12
2019-06-07T02:25:48.670Z,4.45
2019-06-07T02:26:33.218Z,4.20
2019-06-07T02:27:37.898Z,5.30
2019-06-07T02:28:45.632Z,4.00
2019-06-07T02:29:49.302Z,4.35
2019-06-07T02:31:00.215Z,4.62
2019-06-07T02:32:01.107Z,4.05
2019-06-07T02:33:08.330Z,3.90
2019-06-07T02:34:13.786Z,4.37
2019-06-07T02:35:19.040Z,4.45
2019-06-07T02:36:28.797Z,4.45
2019-06-07T02:37:34.063Z,4.90
2019-06-07T02:38:37.939Z,5.10
2019-06-07T02:39:46.909Z,4.60
2019-06-07T02:40:52.697Z,4.30
2019-06-07T02:41:58.124Z,5.00
2019-06-07T02:43:04.115Z,4.05
2019-06-07T02:44:09.511Z,5.60
2019-06-07T02:45:15.117Z,4.42
2019-06-07T02:46:34.103Z,4.45
2019-06-07T02:47:36.084Z,4.17
2019-06-07T02:48:40.698Z,3.90
2019-06-07T02:49:45.352Z,4.92
2019-06-07T02:50:51.150Z,4.87
2019-06-07T02:51:55.750Z,4.35
2019-06-07T02:53:00.899Z,4.50
2019-06-07T02:54:08.377Z,3.42
2019-06-07T02:55:13.883Z,3.98
2019-06-07T02:56:44.495Z,3.90
2019-06-07T02:57:28.334Z,4.62
2019-06-07T02:58:37.963Z,4.35
2019-06-07T03:00:04.315Z,4.50
2019-06-07T03:01:06.073Z,4.60
2019-06-07T03:01:53.766Z,4.95
2019-06-07T03:02:59.076Z,4.65
2019-06-07T03:04:04.539Z,4.37
2019-06-07T03:05:09.771Z,4.25
2019-06-07T03:06:16.318Z,6.90
2019-06-07T03:07:21.724Z,4.72
2019-06-07T03:08:30.934Z,5.58
2019-06-07T03:09:37.111Z,5.15
2019-06-07T03:10:45.230Z,5.45
2019-06-07T03:11:54.811Z,5.55
2019-06-07T03:13:01.662Z,5.17
2019-06-07T03:14:09.768Z,4.92
2019-06-07T03:15:32.269Z,5.78
2019-06-07T03:16:31.291Z,4.70
2019-06-07T03:17:51.865Z,4.58
2019-06-07T03:19:44.133Z,4.20
2019-06-07T03:21:04.664Z,5.50
2019-06-07T03:21:57.221Z,5.30
2019-06-07T03:23:03.658Z,4.75
2019-06-07T03:24:08.282Z,5.00
2019-06-07T03:25:14.246Z,4.92
2019-06-07T03:26:19.405Z,4.65
2019-06-07T03:27:36.097Z,4.85
2019-06-07T03:28:37.468Z,4.17
2019-06-07T03:29:42.055Z,5.55
2019-06-07T03:31:00.745Z,4.53
2019-06-07T03:31:53.687Z,4.50
2019-06-07T03:32:58.283Z,4.55
2019-06-07T03:34:03.454Z,4.78
2019-06-07T03:35:08.365Z,4.85
2019-06-07T03:36:23.754Z,5.35
2019-06-07T03:37:19.902Z,5.03
2019-06-07T03:38:25.062Z,5.28
2019-06-07T03:39:31.004Z,5.37
2019-06-07T03:40:38.530Z,4.70
2019-06-07T03:42:04.600Z,5.80
2019-06-07T03:42:49.887Z,5.35
2019-06-07T03:43:54.542Z,4.42
2019-06-07T03:45:00.265Z,5.15
2019-06-07T03:46:05.451Z,5.05
2019-06-07T03:47:13.644Z,5.60
2019-06-07T03:48:18.843Z,5.80
2019-06-07T03:49:24.048Z,4.90
2019-06-07T03:50:31.874Z,4.30
2019-06-07T03:51:39.317Z,4.25
2019-06-07T03:52:42.294Z,4.70
2019-06-07T03:53:48.356Z,5.87
2019-06-07T03:54:53.160Z,5.25
2019-06-07T03:55:58.426Z,4.33
2019-06-07T03:57:03.029Z,4.60
2019-06-07T03:59:17.030Z,5.17
2019-06-07T04:00:24.357Z,5.72
2019-06-07T04:01:32.361Z,6.33
2019-06-07T04:02:42.717Z,6.08
2019-06-07T04:03:51.671Z,6.05
2019-06-07T04:04:54.095Z,5.78
2019-06-07T04:05:58.746Z,5.90
2019-06-07T04:07:03.979Z,6.55
2019-06-07T04:08:08.636Z,5.25
2019-06-07T04:09:14.289Z,5.72
2019-06-07T04:10:18.854Z,5.25
2019-06-07T04:11:24.013Z,5.25
2019-06-07T04:12:31.666Z,5.60
2019-06-07T04:13:39.854Z,5.58
2019-06-07T04:14:42.892Z,5.58
2019-06-07T04:15:48.565Z,6.10
2019-06-07T04:16:53.236Z,6.28
2019-06-07T04:18:02.327Z,5.65
2019-06-07T04:19:04.804Z,5.30
2019-06-07T04:20:16.202Z,7.22
2019-06-07T04:21:22.034Z,5.40
2019-06-07T04:22:31.290Z,7.97
2019-06-07T04:23:40.519Z,6.35
2019-06-07T04:24:42.659Z,5.30
2019-06-07T04:25:48.078Z,6.10
2019-06-07T04:26:56.606Z,6.47
2019-06-07T04:28:01.218Z,6.28
2019-06-07T04:29:32.360Z,7.10
2019-06-07T04:30:13.823Z,6.90
2019-06-07T04:31:19.384Z,6.78
2019-06-07T04:32:25.393Z,7.20
2019-06-07T04:33:31.201Z,6.33
2019-06-07T04:34:42.902Z,6.62
2019-06-07T04:35:45.750Z,6.78
2019-06-07T04:36:58.972Z,6.65
2019-06-07T04:38:01.169Z,6.85
2019-06-07T04:39:07.999Z,8.30
2019-06-07T04:40:15.103Z,6.20
2019-06-07T04:41:22.589Z,6.37
2019-06-07T04:42:30.016Z,7.17
2019-06-07T04:43:38.152Z,7.92
2019-06-07T04:44:45.214Z,8.45
2019-06-07T04:45:51.855Z,7.55
2019-06-07T04:47:00.491Z,9.10
2019-06-07T04:48:09.674Z,7.08
2019-06-07T04:49:18.277Z,7.60
2019-06-07T04:50:22.952Z,8.20
2019-06-07T04:51:30.134Z,8.08
2019-06-07T04:52:39.836Z,8.10
2019-06-07T04:53:43.246Z,7.78
2019-06-07T04:54:48.058Z,7.53
2019-06-07T04:55:53.414Z,7.90
2019-06-07T04:56:59.289Z,8.23
2019-06-07T04:58:04.865Z,9.48
2019-06-07T04:59:10.135Z,8.53
2019-06-07T05:00:46.743Z,10.32
2019-06-07T05:01:29.153Z,9.98
2019-06-07T05:02:32.013Z,9.58
2019-06-07T05:03:40.804Z,8.18
2019-06-07T05:04:44.105Z,9.53
2019-06-07T05:05:49.288Z,10.23
2019-06-07T05:06:54.483Z,9.70
2019-06-07T05:08:07.140Z,9.85
2019-06-07T05:09:08.126Z,10.25
2019-06-07T05:10:13.248Z,9.38
2019-06-07T05:11:18.468Z,10.50
2019-06-07T05:12:23.534Z,9.10
2019-06-07T05:13:30.628Z,11.45
2019-06-07T05:14:36.593Z,10.13
2019-06-07T05:15:42.459Z,11.65
2019-06-07T05:16:47.147Z,10.15
2019-06-07T05:17:53.841Z,10.58
2019-06-07T05:18:58.638Z,10.15
2019-06-07T05:20:03.955Z,10.72
2019-06-07T05:21:08.818Z,9.88
2019-06-07T05:22:14.029Z,10.50
2019-06-07T05:23:59.926Z,11.08
2019-06-07T05:24:25.529Z,11.03
2019-06-07T05:25:31.794Z,11.00
2019-06-07T05:26:40.217Z,11.40
2019-06-07T05:27:46.728Z,10.60
2019-06-07T05:28:52.339Z,11.53
2019-06-07T05:30:09.504Z,11.75
2019-06-07T05:31:11.732Z,13.32
2019-06-07T05:32:20.690Z,13.48
2019-06-07T05:33:26.683Z,12.93
2019-06-07T05:34:32.749Z,13.90
2019-06-07T05:35:41.359Z,15.65
2019-06-07T05:36:45.250Z,12.95
2019-06-07T05:37:50.700Z,12.53
2019-06-07T05:38:55.578Z,12.47
2019-06-07T05:40:01.169Z,13.48
2019-06-07T05:41:07.136Z,11.88
2019-06-07T05:42:12.914Z,13.62
2019-06-07T05:43:26.029Z,15.18
2019-06-07T05:44:31.627Z,13.55
2019-06-07T05:45:39.251Z,13.98
2019-06-07T05:46:53.719Z,14.47
2019-06-07T05:48:02.742Z,14.30
2019-06-07T05:49:08.837Z,15.15
2019-06-07T05:50:39.019Z,13.98
2019-06-07T05:51:30.313Z,14.53
2019-06-07T05:52:39.541Z,15.88
2019-06-07T05:53:45.990Z,15.60
2019-06-07T05:54:50.268Z,14.23
2019-06-07T05:55:56.191Z,14.90
2019-06-07T05:57:01.471Z,15.18
2019-06-07T05:58:06.839Z,14.10
2019-06-07T05:59:11.433Z,15.98
2019-06-07T06:00:17.041Z,14.30
2019-06-07T06:01:46.083Z,15.58
2019-06-07T06:02:28.932Z,15.90
2019-06-07T06:03:38.003Z,15.23
2019-06-07T06:04:48.782Z,15.55
2019-06-07T06:05:55.319Z,15.55
2019-06-07T06:06:59.312Z,15.45
2019-06-07T06:08:03.961Z,16.25
2019-06-07T06:09:13.812Z,15.72
2019-06-07T06:10:16.687Z,15.32
2019-06-07T06:11:22.317Z,16.40
2019-06-07T06:12:35.420Z,17.67
2019-06-07T06:14:03.507Z,15.90
2019-06-07T06:14:47.054Z,14.38
2019-06-07T06:16:01.079Z,15.38
2019-06-07T06:16:59.065Z,15.40
2019-06-07T06:18:04.339Z,16.50
2019-06-07T06:19:09.103Z,16.27
2019-06-07T06:20:15.129Z,17.60
2019-06-07T06:21:24.728Z,16.75
2019-06-07T06:22:30.277Z,15.45
2019-06-07T06:23:34.955Z,16.87
2019-06-07T06:24:48.744Z,15.53
2019-06-07T06:25:53.582Z,15.13
2019-06-07T06:27:00.295Z,12.80
2019-06-07T06:28:11.479Z,16.15
2019-06-07T06:29:07.685Z,15.68
2019-06-07T06:30:13.169Z,16.57
2019-06-07T06:31:18.414Z,15.20
2019-06-07T06:33:34.384Z,15.55
2019-06-07T06:34:40.119Z,14.90
2019-06-07T06:35:47.519Z,14.75
2019-06-07T06:36:50.593Z,15.30
2019-06-07T06:37:55.773Z,15.75
2019-06-07T06:39:00.679Z,16.50
2019-06-07T06:40:07.542Z,14.98
2019-06-07T06:41:16.462Z,15.00
2019-06-07T06:42:26.724Z,13.05
2019-06-07T06:43:32.724Z,15.70
2019-06-07T06:44:42.551Z,13.93
2019-06-07T06:45:50.479Z,13.90
2019-06-07T06:46:58.296Z,13.20
2019-06-07T06:48:01.405Z,14.13
2019-06-07T06:49:09.382Z,12.15
2019-06-07T06:50:21.595Z,12.23
2019-06-07T06:51:27.482Z,12.23
2019-06-07T06:52:32.954Z,12.90
2019-06-07T06:53:40.038Z,12.65
2019-06-07T06:54:55.347Z,12.03
2019-06-07T06:55:55.422Z,10.90
2019-06-07T06:57:17.667Z,12.90
2019-06-07T06:58:08.648Z,12.20
2019-06-07T06:59:37.904Z,11.50
2019-06-07T07:00:58.963Z,11.30
2019-06-07T07:01:54.137Z,10.23
2019-06-07T07:03:47.657Z,10.60
2019-06-07T07:04:12.941Z,11.57
2019-06-07T07:05:15.550Z,10.63
2019-06-07T07:06:26.688Z,11.65
2019-06-07T07:07:32.626Z,11.83
2019-06-07T07:08:38.097Z,13.18
2019-06-07T07:09:51.091Z,10.32
2019-06-07T07:10:57.738Z,11.15
2019-06-07T07:12:12.176Z,12.07
2019-06-07T07:13:10.930Z,11.45
2019-06-07T07:14:16.432Z,10.78
2019-06-07T07:15:25.278Z,10.60
2019-06-07T07:16:31.057Z,10.90
2019-06-07T07:17:50.799Z,10.45
2019-06-07T07:18:47.569Z,10.58
2019-06-07T07:19:56.241Z,8.93
2019-06-07T07:21:03.171Z,10.75
2019-06-07T07:22:08.057Z,7.78
2019-06-07T07:23:13.348Z,10.15
2019-06-07T07:24:21.717Z,9.60
2019-06-07T07:25:24.891Z,9.23
2019-06-07T07:26:29.556Z,8.90
2019-06-07T07:27:35.095Z,10.15
2019-06-07T07:28:39.750Z,9.68
2019-06-07T07:29:49.605Z,9.15
2019-06-07T07:30:55.334Z,9.25
2019-06-07T07:31:59.967Z,7.40
2019-06-07T07:33:06.417Z,8.35
2019-06-07T07:34:31.821Z,8.28
2019-06-07T07:35:18.350Z,8.13
2019-06-07T07:36:38.814Z,9.98
2019-06-07T07:37:30.202Z,7.65
2019-06-07T07:38:35.421Z,7.83
2019-06-07T07:39:45.260Z,8.55
2019-06-07T07:41:07.681Z,8.90
2019-06-07T07:42:20.864Z,8.10
2019-06-07T07:43:17.694Z,7.47
2019-06-07T07:44:23.764Z,8.03
2019-06-07T07:45:30.102Z,8.28
2019-06-07T07:46:43.354Z,7.45
2019-06-07T07:48:10.593Z,7.80
2019-06-07T07:48:57.579Z,7.47
2019-06-07T07:50:02.750Z,7.15
2019-06-07T07:51:08.840Z,6.15
2019-06-07T07:52:16.164Z,7.72
2019-06-07T07:53:21.684Z,6.10
2019-06-07T07:54:28.569Z,7.50
2019-06-07T07:55:33.263Z,6.83
2019-06-07T07:56:39.132Z,6.65
2019-06-07T07:58:01.845Z,7.10
2019-06-07T07:59:12.739Z,6.85
2019-06-07T08:01:31.189Z,6.80
2019-06-07T08:02:36.193Z,5.45
2019-06-07T08:03:50.736Z,7.80
2019-06-07T08:06:06.723Z,6.00
2019-06-07T08:07:14.217Z,6.65
2019-06-07T08:08:20.764Z,5.97
2019-06-07T08:09:25.496Z,5.80
2019-06-07T08:10:31.191Z,5.85
2019-06-07T08:11:39.036Z,5.60
2019-06-07T08:13:08.950Z,6.03
2019-06-07T08:13:52.904Z,5.85
2019-06-07T08:15:02.851Z,6.22
2019-06-07T08:16:13.600Z,6.90
2019-06-07T08:17:13.961Z,6.20
2019-06-07T08:18:18.847Z,6.25
2019-06-07T08:19:24.179Z,6.92
2019-06-07T08:20:29.111Z,5.17
2019-06-07T08:21:36.023Z,5.40
2019-06-07T08:23:30.615Z,4.80
2019-06-07T08:24:41.018Z,5.70
2019-06-07T08:26:01.028Z,5.15
2019-06-07T08:27:25.219Z,5.10
2019-06-07T08:28:15.575Z,6.25
2019-06-07T08:29:21.098Z,5.30
2019-06-07T08:31:34.886Z,4.80
2019-06-07T08:32:39.542Z,5.62
2019-06-07T08:33:49.885Z,4.83
2019-06-07T08:35:01.582Z,5.00
2019-06-07T08:36:11.914Z,5.72
2019-06-07T08:37:08.661Z,5.33
2019-06-07T08:38:26.705Z,5.17
2019-06-07T08:39:20.198Z,5.10
2019-06-07T08:40:26.961Z,5.65
2019-06-07T08:41:31.724Z,4.33
2019-06-07T08:42:59.481Z,4.58
2019-06-07T08:43:46.252Z,4.22
2019-06-07T08:45:01.525Z,4.50
2019-06-07T08:46:07.291Z,4.12
2019-06-07T08:47:20.457Z,4.08
2019-06-07T08:48:38.882Z,3.87
2019-06-07T08:49:45.379Z,4.40
2019-06-07T08:50:54.294Z,4.67
2019-06-07T08:52:05.677Z,4.15
2019-06-07T08:53:12.364Z,4.25
2019-06-07T08:54:22.693Z,4.42
2019-06-07T08:55:33.432Z,6.75
2019-06-07T08:56:40.554Z,5.17
2019-06-07T08:57:48.202Z,3.62
2019-06-07T08:59:12.411Z,3.58
2019-06-07T09:00:45.493Z,4.65
2019-06-07T09:01:32.753Z,4.25
2019-06-07T09:02:46.452Z,4.83
2019-06-07T09:04:02.837Z,4.37
2019-06-07T09:05:11.703Z,3.83
2019-06-07T09:06:41.518Z,4.33
2019-06-07T09:07:21.974Z,5.10
2019-06-07T09:08:32.438Z,3.83
2019-06-07T09:09:38.963Z,3.72
2019-06-07T09:10:59.450Z,4.15
2019-06-07T09:12:08.162Z,3.45
2019-06-07T09:13:12.229Z,2.87
2019-06-07T09:14:16.971Z,4.00
2019-06-07T09:15:26.795Z,3.70
2019-06-07T09:16:33.649Z,3.60
2019-06-07T09:18:29.616Z,3.77
2019-06-07T09:18:45.330Z,3.67
2019-06-07T09:19:51.355Z,3.83
2019-06-07T09:20:58.223Z,3.50
2019-06-07T09:22:11.445Z,3.92
2019-06-07T09:23:17.107Z,3.42
2019-06-07T09:24:27.032Z,4.00
2019-06-07T09:25:55.832Z,3.87
2019-06-07T09:26:55.850Z,3.75
2019-06-07T09:28:10.327Z,3.90
2019-06-07T09:29:11.814Z,4.03
2019-06-07T09:30:19.596Z,4.10
2019-06-07T09:31:51.083Z,3.60
2019-06-07T09:32:34.939Z,3.35
2019-06-07T09:33:41.770Z,3.80
2019-06-07T09:34:46.790Z,3.75
2019-06-07T09:35:53.698Z,3.72
2019-06-07T09:37:10.396Z,3.60
2019-06-07T09:38:21.805Z,4.30
2019-06-07T09:39:12.995Z,3.60
2019-06-07T09:40:27.596Z,4.10
2019-06-07T09:41:47.003Z,3.58
2019-06-07T09:42:40.457Z,3.85
2019-06-07T09:44:10.852Z,3.70
2019-06-07T09:44:52.359Z,3.47
2019-06-07T09:45:58.819Z,3.10
2019-06-07T09:47:22.444Z,3.80
2019-06-07T09:48:15.902Z,3.62
2019-06-07T09:49:30.602Z,3.50
2019-06-07T09:50:24.437Z,2.90
2019-06-07T09:51:32.634Z,3.77
2019-06-07T09:52:57.376Z,3.50
2019-06-07T09:53:44.578Z,3.50
2019-06-07T09:55:21.724Z,3.22
2019-06-07T09:55:56.829Z,3.87
2019-06-07T09:57:16.816Z,4.55
2019-06-07T09:58:50.568Z,3.40
2019-06-07T09:59:23.722Z,3.25
2019-06-07T10:00:44.572Z,3.70
2019-06-07T10:01:35.885Z,3.83
2019-06-07T10:02:45.467Z,3.95
2019-06-07T10:03:50.404Z,4.30
2019-06-07T10:04:58.841Z,3.33
2019-06-07T10:06:07.557Z,3.47
2019-06-07T10:07:30.877Z,3.85
2019-06-07T10:09:26.154Z,4.05
2019-06-07T10:10:08.717Z,3.65
2019-06-07T10:11:49.037Z,3.75
2019-06-07T10:12:54.078Z,4.12
2019-06-07T10:14:02.442Z,4.42
2019-06-07T10:15:09.032Z,4.80
2019-06-07T10:16:15.583Z,3.55
2019-06-07T10:17:21.276Z,3.85
2019-06-07T10:18:27.519Z,3.45
2019-06-07T10:19:33.389Z,3.85
2019-06-07T10:20:39.224Z,3.52
2019-06-07T10:21:44.691Z,3.75
2019-06-07T10:22:50.205Z,3.40
2019-06-07T10:23:57.167Z,4.30
2019-06-07T10:25:08.338Z,3.33
2019-06-07T10:26:19.586Z,3.75
2019-06-07T10:27:27.181Z,4.53
2019-06-07T10:29:12.446Z,4.97
2019-06-07T10:30:20.247Z,4.70
2019-06-07T10:31:29.509Z,4.35
2019-06-07T10:32:35.545Z,3.95
2019-06-07T10:33:40.797Z,3.35
2019-06-07T10:34:46.107Z,4.10
2019-06-07T10:35:51.896Z,2.92
2019-06-07T10:36:56.578Z,4.15
2019-06-07T10:38:08.606Z,4.25
2019-06-07T10:39:18.339Z,4.35
2019-06-07T10:40:22.242Z,4.10
2019-06-07T10:41:30.202Z,4.33
2019-06-07T10:42:35.729Z,4.50
2019-06-07T10:43:46.942Z,3.67
2019-06-07T10:44:52.204Z,3.50
2019-06-07T10:45:56.853Z,3.60
2019-06-07T10:47:08.158Z,3.40
2019-06-07T10:48:25.020Z,3.22
2019-06-07T10:50:42.439Z,2.92
2019-06-07T10:52:27.572Z,3.17
2019-06-07T10:53:35.309Z,3.00
2019-06-07T10:55:44.203Z,2.50
2019-06-07T10:59:39.210Z,3.10
2019-06-07T11:01:03.357Z,2.20
2019-06-07T11:02:07.961Z,2.60
2019-06-07T11:03:14.267Z,2.75
2019-06-07T11:05:15.393Z,2.50
2019-06-07T11:06:29.168Z,2.60
2019-06-07T11:07:38.382Z,2.90
2019-06-07T11:08:49.363Z,2.70
2019-06-07T11:10:07.471Z,2.10
2019-06-07T11:11:30.834Z,2.27
2019-06-07T11:12:35.762Z,2.20
2019-06-07T11:13:57.444Z,1.87
2019-06-07T11:15:04.558Z,2.20
2019-06-07T11:16:15.662Z,2.35
2019-06-07T11:17:20.859Z,2.20
2019-06-07T11:18:26.418Z,2.00
2019-06-07T11:19:31.157Z,2.20
2019-06-07T11:20:37.092Z,2.17
2019-06-07T11:21:45.566Z,1.50
2019-06-07T11:22:53.958Z,1.63
2019-06-07T11:24:02.817Z,2.30
2019-06-07T11:25:09.267Z,2.40
2019-06-07T11:26:21.563Z,1.57
2019-06-07T11:27:27.468Z,1.80
2019-06-07T11:28:38.228Z,2.23
2019-06-07T11:29:50.185Z,1.43
2019-06-07T11:31:18.930Z,2.07
2019-06-07T11:32:26.723Z,2.33
2019-06-07T11:33:36.100Z,1.93
2019-06-07T11:34:42.265Z,2.40
2019-06-07T11:35:52.126Z,1.90
2019-06-07T11:36:57.854Z,2.47
2019-06-07T11:38:06.278Z,2.10
2019-06-07T11:39:12.842Z,2.20
2019-06-07T11:40:34.426Z,1.93
2019-06-07T11:41:37.219Z,2.70
2019-06-07T11:52:28.316Z,2.60
2019-06-07T11:54:41.984Z,2.90
2019-06-07T11:55:47.413Z,2.20
2019-06-07T11:56:53.418Z,3.47
2019-06-07T11:57:59.215Z,2.27
2019-06-07T11:59:04.111Z,2.47
2019-06-07T12:00:13.602Z,2.20
2019-06-07T12:01:25.453Z,2.43
2019-06-07T12:02:30.887Z,1.80
2019-06-07T12:04:34.450Z,2.00
2019-06-07T12:06:12.033Z,1.80
2019-06-07T12:07:17.171Z,2.10
2019-06-07T12:08:33.179Z,1.83
2019-06-07T12:09:56.001Z,1.57
2019-06-07T12:11:01.101Z,1.97
2019-06-07T12:12:12.616Z,2.17
2019-06-07T12:13:26.966Z,2.10
2019-06-07T12:14:40.838Z,2.10
2019-06-07T12:15:48.960Z,2.13
2019-06-07T12:16:56.196Z,2.60
2019-06-07T12:18:00.876Z,2.00
2019-06-07T12:19:19.779Z,1.98
2019-06-07T12:20:25.585Z,2.12
2019-06-07T12:21:30.879Z,2.77
2019-06-07T12:22:47.506Z,2.75
2019-06-07T12:23:52.818Z,2.80
2019-06-07T12:25:06.982Z,3.00
2019-06-07T12:26:12.581Z,3.22
2019-06-07T12:27:18.647Z,3.35
2019-06-07T12:28:26.704Z,2.52
2019-06-07T12:29:34.060Z,3.00
2019-06-07T12:30:45.462Z,3.33
2019-06-07T12:31:52.799Z,3.00
2019-06-07T12:32:58.119Z,3.30
2019-06-07T12:34:03.612Z,3.50
2019-06-07T12:35:17.760Z,3.67
2019-06-07T12:36:29.828Z,3.10
2019-06-07T12:37:43.814Z,3.12
2019-06-07T12:38:46.005Z,3.17
2019-06-07T12:39:51.275Z,3.70
2019-06-07T12:40:59.877Z,3.72
2019-06-07T12:42:05.511Z,4.28
2019-06-07T12:43:14.548Z,3.25
2019-06-07T12:44:26.755Z,4.12
2019-06-07T12:45:45.040Z,3.50
2019-06-07T12:46:46.345Z,3.90
2019-06-07T12:47:54.286Z,4.47
2019-06-07T12:49:19.191Z,3.62
2019-06-07T12:51:06.725Z,3.80
2019-06-07T12:52:27.358Z,3.92
2019-06-07T12:54:09.025Z,3.10
2019-06-07T12:55:18.022Z,3.45
2019-06-07T12:56:44.883Z,3.47
2019-06-07T12:57:53.580Z,3.83
2019-06-07T12:59:00.343Z,4.08
2019-06-07T13:00:11.707Z,2.90
2019-06-07T13:01:20.872Z,3.05
2019-06-07T13:02:27.947Z,3.95
2019-06-07T13:03:32.641Z,3.02
2019-06-07T13:04:41.196Z,3.65
2019-06-07T13:05:47.376Z,3.95
2019-06-07T13:06:59.884Z,4.03
2019-06-07T13:08:09.100Z,3.77
2019-06-07T13:09:24.166Z,4.10
2019-06-07T13:10:35.615Z,3.98
2019-06-07T13:12:02.846Z,3.70
2019-06-07T13:13:10.752Z,4.10
2019-06-07T13:14:20.403Z,4.22
2019-06-07T13:15:26.138Z,3.85
2019-06-07T13:16:38.191Z,3.95
2019-06-07T13:17:49.998Z,3.65
2019-06-07T13:18:56.158Z,3.87
2019-06-07T13:20:01.063Z,4.45
2019-06-07T13:21:11.067Z,3.62
2019-06-07T13:22:16.217Z,3.85
2019-06-07T13:23:36.639Z,3.02
2019-06-07T13:24:43.159Z,3.90
2019-06-07T13:25:49.386Z,3.90
2019-06-07T13:27:12.531Z,3.47
2019-06-07T13:28:20.758Z,3.85
2019-06-07T13:29:44.862Z,2.27
2019-06-07T13:30:52.113Z,4.75
2019-06-07T13:32:03.315Z,3.95
2019-06-07T13:35:29.633Z,2.55
2019-06-07T13:36:35.338Z,3.55
2019-06-07T13:37:43.927Z,4.20
2019-06-07T13:38:55.094Z,4.37
2019-06-07T13:40:09.813Z,5.25
2019-06-07T13:42:02.198Z,5.03
2019-06-07T13:43:21.740Z,4.87
2019-06-07T13:44:33.915Z,3.30
2019-06-07T13:45:42.100Z,4.37
2019-06-07T13:46:47.845Z,4.17
2019-06-07T13:47:59.561Z,3.35
2019-06-07T13:49:09.686Z,3.90
2019-06-07T13:50:17.614Z,4.50
2019-06-07T13:51:28.986Z,4.50
2019-06-07T13:52:32.836Z,4.80
2019-06-07T13:53:40.245Z,4.35
2019-06-07T13:54:46.243Z,4.25
2019-06-07T13:55:50.787Z,4.83
2019-06-07T13:57:02.611Z,4.40
2019-06-07T13:58:05.413Z,4.05
2019-06-07T13:59:13.616Z,3.75
2019-06-07T14:00:18.993Z,4.92
2019-06-07T14:01:27.239Z,4.05
2019-06-07T14:02:50.802Z,5.12
2019-06-07T14:03:56.114Z,4.60
2019-06-07T14:05:05.318Z,4.92
2019-06-07T14:06:13.591Z,4.05
2019-06-07T14:07:19.050Z,4.12
2019-06-07T14:08:27.309Z,6.55
2019-06-07T14:09:36.482Z,5.45
2019-06-07T14:10:46.686Z,5.15
2019-06-07T14:11:56.088Z,6.17
2019-06-07T14:13:00.968Z,5.75
2019-06-07T14:14:08.540Z,5.58
2019-06-07T14:15:28.495Z,5.35
2019-06-07T14:16:41.152Z,4.53
2019-06-07T14:18:46.697Z,4.95
2019-06-07T14:19:53.453Z,3.95
2019-06-07T14:21:01.083Z,4.40
2019-06-07T14:22:48.695Z,2.77
2019-06-07T14:24:04.171Z,4.60
2019-06-07T14:25:27.629Z,3.75
2019-06-07T14:26:45.187Z,3.95
2019-06-07T14:28:13.830Z,4.42
2019-06-07T14:29:19.334Z,4.03
2019-06-07T14:30:50.963Z,4.42
2019-06-07T14:32:56.605Z,4.12
2019-06-07T14:34:24.241Z,3.60
2019-06-07T14:35:33.567Z,4.15
2019-06-07T14:37:08.635Z,4.25
2019-06-07T14:40:30.149Z,3.87
2019-06-07T14:41:35.430Z,4.30
2019-06-07T14:43:04.508Z,3.95
2019-06-07T14:44:09.793Z,4.20
2019-06-07T14:45:23.457Z,3.77
2019-06-07T14:46:36.318Z,4.15
2019-06-07T14:47:48.642Z,3.87
2019-06-07T14:48:57.755Z,5.30
2019-06-07T14:50:10.890Z,4.30
2019-06-07T14:51:28.343Z,4.30
2019-06-07T14:52:37.206Z,3.27
2019-06-07T14:56:35.318Z,3.70
2019-06-07T14:57:43.526Z,5.50
2019-06-07T14:59:01.885Z,4.35
2019-06-07T15:00:12.507Z,2.87
2019-06-07T15:01:18.761Z,3.55
2019-06-07T15:02:24.142Z,4.10
2019-06-07T15:03:30.706Z,4.33
2019-06-07T15:04:36.322Z,3.33
2019-06-07T15:05:42.103Z,3.80
2019-06-07T15:07:23.522Z,3.10
2019-06-07T15:08:28.799Z,3.72
2019-06-07T15:09:39.523Z,3.50
2019-06-07T15:10:49.008Z,3.75
2019-06-07T15:11:58.021Z,4.03
2019-06-07T15:13:08.178Z,5.92
2019-06-07T15:14:16.860Z,5.60
2019-06-07T15:15:45.170Z,5.75
2019-06-07T15:16:51.933Z,5.03
2019-06-07T15:18:01.345Z,5.00
2019-06-07T15:19:06.401Z,4.65
2019-06-07T15:20:14.421Z,5.72
2019-06-07T15:21:19.085Z,5.95
2019-06-07T15:22:24.413Z,5.15
2019-06-07T15:23:36.259Z,4.92
2019-06-07T15:24:41.805Z,4.80
2019-06-07T15:25:47.873Z,4.28
2019-06-07T15:26:53.494Z,4.42
2019-06-07T15:28:13.557Z,4.40
2019-06-07T15:30:29.489Z,4.40
2019-06-07T15:31:39.933Z,5.10
2019-06-07T15:32:50.071Z,5.40
2019-06-07T15:34:20.669Z,5.03
2019-06-07T15:35:30.319Z,4.90
2019-06-07T15:36:38.649Z,4.40
2019-06-07T15:37:43.509Z,4.95
2019-06-07T15:38:53.078Z,4.42
2019-06-07T15:40:08.590Z,3.87